Chapada Diamantina, Brazil
Current Conditions -  °F | °C
As of 1:00 PM on Thursday 30 Oct 2014 (Local Time) from SBQV Reporting Station
Overcast Overcast  
Wind Chill: 73°   Ceiling: 7000
Heat Index: 73°   Visibility: 6mi
Dew Point: 66°   Wind: 7mph
Humidity: 78%   Direction: 50°NE
Pressure: 30.09"   Gusts: NA
Location:  12.48°S, 41.28°W
Report Text: SBQV 301600Z 05006KT 9999 FEW015 OVC070 23/19 Q1019
Loading
Personal Weather Stations






























Interactive Weather Map
Tropical Storm Tracking
New forecast layout! Learn more

10-Day Weather Forecast

Advertisements
Track Severe Weather on mobile